sensor_id;sensor_type;location;lat;lon;timestamp;pressure;altitude;pressure_sealevel;temperature;humidity
24230;BME280;12362;50.004;8.006;2023-07-16T00:01:54;100134.94;;;20.38;100.00
24230;BME280;12362;50.004;8.006;2023-07-16T00:04:20;100140.91;;;20.31;100.00
24230;BME280;12362;50.004;8.006;2023-07-16T00:06:45;100149.00;;;20.29;100.00
24230;BME280;12362;50.004;8.006;2023-07-16T00:09:11;100160.63;;;20.27;100.00
24230;BME280;12362;50.004;8.006;2023-07-16T00:11:36;100166.47;;;20.30;100.00
24230;BME280;12362;50.004;8.006;2023-07-16T00:14:02;100180.75;;;20.28;100.00
24230;BME280;12362;50.004;8.006;2023-07-16T00:16:28;100181.59;;;20.28;100.00
24230;BME280;12362;50.004;8.006;2023-07-16T00:18:53;100177.31;;;20.37;100.00
24230;BME280;12362;50.004;8.006;2023-07-16T00:21:19;100169.13;;;20.30;100.00
24230;BME280;12362;50.004;8.006;2023-07-16T00:23:44;100172.03;;;20.27;100.00
24230;BME280;12362;50.004;8.006;2023-07-16T00:26:09;100175.38;;;20.29;100.00
24230;BME280;12362;50.004;8.006;2023-07-16T00:28:35;100180.78;;;20.18;100.00
24230;BME280;12362;50.004;8.006;2023-07-16T00:31:01;100194.22;;;19.97;100.00
24230;BME280;12362;50.004;8.006;2023-07-16T00:33:26;100204.88;;;19.86;100.00
24230;BME280;12362;50.004;8.006;2023-07-16T00:35:52;100206.81;;;19.84;100.00
24230;BME280;12362;50.004;8.006;2023-07-16T00:38:18;100214.31;;;19.79;100.00
24230;BME280;12362;50.004;8.006;2023-07-16T00:40:44;100214.88;;;19.82;100.00
24230;BME280;12362;50.004;8.006;2023-07-16T00:43:10;100201.84;;;19.81;100.00
24230;BME280;12362;50.004;8.006;2023-07-16T00:45:37;100188.38;;;19.84;100.00
24230;BME280;12362;50.004;8.006;2023-07-16T00:48:04;100190.75;;;19.77;100.00
24230;BME280;12362;50.004;8.006;2023-07-16T00:50:31;100194.06;;;19.70;100.00
24230;BME280;12362;50.004;8.006;2023-07-16T00:53:09;100200.00;;;19.62;100.00
24230;BME280;12362;50.004;8.006;2023-07-16T00:55:38;100196.22;;;19.55;100.00
24230;BME280;12362;50.004;8.006;2023-07-16T00:58:06;100204.53;;;19.41;100.00
24230;BME280;12362;50.004;8.006;2023-07-16T01:02:58;100198.28;;;19.33;100.00
24230;BME280;12362;50.004;8.006;2023-07-16T01:05:24;100191.63;;;19.38;100.00
24230;BME280;12362;50.004;8.006;2023-07-16T01:07:55;100193.28;;;19.30;100.00
24230;BME280;12362;50.004;8.006;2023-07-16T01:10:24;100199.22;;;19.22;100.00
24230;BME280;12362;50.004;8.006;2023-07-16T01:12:53;100215.31;;;19.29;100.00
24230;BME280;12362;50.004;8.006;2023-07-16T01:15:20;100219.03;;;19.26;100.00
24230;BME280;12362;50.004;8.006;2023-07-16T01:17:45;100230.44;;;19.36;100.00
24230;BME280;12362;50.004;8.006;2023-07-16T01:20:11;100220.00;;;19.25;100.00
24230;BME280;12362;50.004;8.006;2023-07-16T01:22:52;100232.56;;;19.13;100.00
24230;BME280;12362;50.004;8.006;2023-07-16T01:28:34;100238.78;;;18.91;100.00
24230;BME280;12362;50.004;8.006;2023-07-16T01:31:04;100239.41;;;18.95;100.00
24230;BME280;12362;50.004;8.006;2023-07-16T01:33:31;100236.69;;;18.85;100.00
24230;BME280;12362;50.004;8.006;2023-07-16T01:35:58;100247.56;;;18.71;100.00
24230;BME280;12362;50.004;8.006;2023-07-16T01:38:24;100248.66;;;18.69;100.00
24230;BME280;12362;50.004;8.006;2023-07-16T01:40:50;100258.22;;;18.70;100.00
24230;BME280;12362;50.004;8.006;2023-07-16T01:43:15;100262.38;;;18.72;100.00
24230;BME280;12362;50.004;8.006;2023-07-16T01:45:41;100258.78;;;18.73;100.00
24230;BME280;12362;50.004;8.006;2023-07-16T01:48:21;100259.44;;;18.66;100.00
24230;BME280;12362;50.004;8.006;2023-07-16T01:50:48;100262.94;;;18.55;100.00
24230;BME280;12362;50.004;8.006;2023-07-16T01:53:13;100263.47;;;18.49;100.00
24230;BME280;12362;50.004;8.006;2023-07-16T01:55:39;100268.25;;;18.44;100.00
24230;BME280;12362;50.004;8.006;2023-07-16T01:58:04;100269.16;;;18.34;100.00
24230;BME280;12362;50.004;8.006;2023-07-16T02:00:31;100264.41;;;18.28;100.00
24230;BME280;12362;50.004;8.006;2023-07-16T02:02:56;100273.97;;;18.18;100.00
24230;BME280;12362;50.004;8.006;2023-07-16T02:05:22;100274.44;;;18.12;100.00
24230;BME280;12362;50.004;8.006;2023-07-16T02:07:47;100274.34;;;18.14;100.00
24230;BME280;12362;50.004;8.006;2023-07-16T02:10:13;100274.22;;;18.15;100.00
24230;BME280;12362;50.004;8.006;2023-07-16T02:12:38;100267.28;;;18.14;100.00
24230;BME280;12362;50.004;8.006;2023-07-16T02:15:04;100273.88;;;18.09;100.00
24230;BME280;12362;50.004;8.006;2023-07-16T02:17:34;100287.38;;;18.04;100.00
24230;BME280;12362;50.004;8.006;2023-07-16T02:19:59;100287.75;;;18.00;100.00
24230;BME280;12362;50.004;8.006;2023-07-16T02:22:25;100286.47;;;17.94;100.00
24230;BME280;12362;50.004;8.006;2023-07-16T02:24:50;100291.47;;;17.97;100.00
24230;BME280;12362;50.004;8.006;2023-07-16T02:27:15;100288.75;;;17.88;100.00
24230;BME280;12362;50.004;8.006;2023-07-16T02:29:41;100283.88;;;17.83;100.00
24230;BME280;12362;50.004;8.006;2023-07-16T02:32:07;100293.19;;;17.87;100.00
24230;BME280;12362;50.004;8.006;2023-07-16T02:34:32;100294.75;;;17.79;100.00
24230;BME280;12362;50.004;8.006;2023-07-16T02:37:00;100304.75;;;17.85;100.00
24230;BME280;12362;50.004;8.006;2023-07-16T02:39:27;100301.69;;;17.80;100.00
24230;BME280;12362;50.004;8.006;2023-07-16T02:41:52;100308.34;;;17.84;100.00
24230;BME280;12362;50.004;8.006;2023-07-16T02:44:17;100309.66;;;17.78;100.00
24230;BME280;12362;50.004;8.006;2023-07-16T02:46:43;100308.47;;;17.82;100.00
24230;BME280;12362;50.004;8.006;2023-07-16T02:49:09;100313.00;;;17.80;100.00
24230;BME280;12362;50.004;8.006;2023-07-16T02:51:35;100311.69;;;17.75;100.00
24230;BME280;12362;50.004;8.006;2023-07-16T02:54:00;100311.59;;;17.76;100.00
24230;BME280;12362;50.004;8.006;2023-07-16T02:56:26;100315.53;;;17.82;100.00
24230;BME280;12362;50.004;8.006;2023-07-16T02:58:51;100318.50;;;17.77;100.00
24230;BME280;12362;50.004;8.006;2023-07-16T03:01:17;100321.25;;;17.76;100.00
24230;BME280;12362;50.004;8.006;2023-07-16T03:03:42;100322.94;;;17.77;100.00
24230;BME280;12362;50.004;8.006;2023-07-16T03:06:08;100323.06;;;17.75;100.00
24230;BME280;12362;50.004;8.006;2023-07-16T03:08:34;100328.03;;;17.78;100.00
24230;BME280;12362;50.004;8.006;2023-07-16T03:10:59;100328.66;;;17.71;100.00
24230;BME280;12362;50.004;8.006;2023-07-16T03:13:25;100337.97;;;17.75;100.00
24230;BME280;12362;50.004;8.006;2023-07-16T03:15:51;100337.00;;;17.76;100.00
24230;BME280;12362;50.004;8.006;2023-07-16T03:18:19;100340.50;;;17.76;100.00
24230;BME280;12362;50.004;8.006;2023-07-16T03:20:45;100343.44;;;17.72;100.00
24230;BME280;12362;50.004;8.006;2023-07-16T03:23:11;100341.47;;;17.64;100.00
24230;BME280;12362;50.004;8.006;2023-07-16T03:25:36;100347.31;;;17.57;100.00
24230;BME280;12362;50.004;8.006;2023-07-16T03:28:02;100350.38;;;17.51;100.00
24230;BME280;12362;50.004;8.006;2023-07-16T03:30:32;100357.19;;;17.42;100.00
24230;BME280;12362;50.004;8.006;2023-07-16T03:32:58;100361.63;;;17.42;100.00
24230;BME280;12362;50.004;8.006;2023-07-16T03:35:25;100366.63;;;17.34;100.00
24230;BME280;12362;50.004;8.006;2023-07-16T03:37:50;100366.94;;;17.30;100.00
24230;BME280;12362;50.004;8.006;2023-07-16T03:40:18;100374.19;;;17.26;100.00
24230;BME280;12362;50.004;8.006;2023-07-16T03:42:46;100370.75;;;17.26;100.00
24230;BME280;12362;50.004;8.006;2023-07-16T03:45:11;100367.63;;;17.21;100.00
24230;BME280;12362;50.004;8.006;2023-07-16T03:47:37;100369.31;;;17.22;100.00
24230;BME280;12362;50.004;8.006;2023-07-16T03:50:03;100362.28;;;17.22;100.00
24230;BME280;12362;50.004;8.006;2023-07-16T03:52:28;100364.91;;;17.22;100.00
24230;BME280;12362;50.004;8.006;2023-07-16T03:54:54;100369.28;;;17.11;100.00
24230;BME280;12362;50.004;8.006;2023-07-16T03:57:20;100378.22;;;17.08;100.00
24230;BME280;12362;50.004;8.006;2023-07-16T03:59:46;100378.59;;;17.04;100.00
24230;BME280;12362;50.004;8.006;2023-07-16T04:02:12;100386.69;;;17.01;100.00
24230;BME280;12362;50.004;8.006;2023-07-16T04:04:37;100384.41;;;16.96;100.00
24230;BME280;12362;50.004;8.006;2023-07-16T04:07:03;100375.44;;;16.99;100.00
24230;BME280;12362;50.004;8.006;2023-07-16T04:09:28;100376.91;;;17.03;100.00
24230;BME280;12362;50.004;8.006;2023-07-16T04:11:54;100386.44;;;17.04;100.00
24230;BME280;12362;50.004;8.006;2023-07-16T04:14:19;100392.53;;;17.04;100.00
24230;BME280;12362;50.004;8.006;2023-07-16T04:16:44;100395.88;;;17.06;100.00
24230;BME280;12362;50.004;8.006;2023-07-16T04:19:10;100401.94;;;17.07;100.00
24230;BME280;12362;50.004;8.006;2023-07-16T04:21:35;100401.72;;;17.10;100.00
24230;BME280;12362;50.004;8.006;2023-07-16T04:24:05;100412.25;;;17.21;100.00
24230;BME280;12362;50.004;8.006;2023-07-16T04:26:31;100403.41;;;17.22;100.00
24230;BME280;12362;50.004;8.006;2023-07-16T04:28:56;100405.91;;;17.23;100.00
24230;BME280;12362;50.004;8.006;2023-07-16T04:31:22;100407.59;;;17.24;100.00
24230;BME280;12362;50.004;8.006;2023-07-16T04:33:48;100411.88;;;17.25;100.00
24230;BME280;12362;50.004;8.006;2023-07-16T04:36:13;100411.66;;;17.28;100.00
24230;BME280;12362;50.004;8.006;2023-07-16T04:38:39;100406.09;;;17.33;100.00
24230;BME280;12362;50.004;8.006;2023-07-16T04:41:04;100412.31;;;17.42;100.00
24230;BME280;12362;50.004;8.006;2023-07-16T04:43:29;100420.69;;;17.47;100.00
24230;BME280;12362;50.004;8.006;2023-07-16T04:45:55;100422.22;;;17.50;100.00
24230;BME280;12362;50.004;8.006;2023-07-16T04:48:20;100427.75;;;17.58;100.00
24230;BME280;12362;50.004;8.006;2023-07-16T04:50:46;100428.13;;;17.64;100.00
24230;BME280;12362;50.004;8.006;2023-07-16T04:53:11;100434.78;;;17.68;100.00
24230;BME280;12362;50.004;8.006;2023-07-16T04:55:37;100436.34;;;17.71;100.00
24230;BME280;12362;50.004;8.006;2023-07-16T04:58:03;100438.38;;;17.78;100.00
24230;BME280;12362;50.004;8.006;2023-07-16T05:00:29;100445.06;;;17.82;100.00
24230;BME280;12362;50.004;8.006;2023-07-16T05:02:54;100443.16;;;17.84;100.00
24230;BME280;12362;50.004;8.006;2023-07-16T05:05:19;100445.66;;;17.86;100.00
24230;BME280;12362;50.004;8.006;2023-07-16T05:07:45;100451.41;;;18.02;100.00
24230;BME280;12362;50.004;8.006;2023-07-16T05:10:10;100445.19;;;18.03;100.00
24230;BME280;12362;50.004;8.006;2023-07-16T05:12:36;100454.63;;;18.05;100.00
24230;BME280;12362;50.004;8.006;2023-07-16T05:15:02;100461.94;;;18.02;100.00
24230;BME280;12362;50.004;8.006;2023-07-16T05:17:27;100466.44;;;18.11;100.00
24230;BME280;12362;50.004;8.006;2023-07-16T05:19:52;100470.28;;;18.18;100.00
24230;BME280;12362;50.004;8.006;2023-07-16T05:22:18;100474.13;;;18.25;100.00
24230;BME280;12362;50.004;8.006;2023-07-16T05:24:43;100483.09;;;18.22;100.00
24230;BME280;12362;50.004;8.006;2023-07-16T05:27:10;100470.66;;;18.35;100.00
24230;BME280;12362;50.004;8.006;2023-07-16T05:29:35;100481.53;;;18.41;100.00
24230;BME280;12362;50.004;8.006;2023-07-16T05:32:01;100481.63;;;18.51;100.00
24230;BME280;12362;50.004;8.006;2023-07-16T05:34:26;100485.19;;;18.50;100.00
24230;BME280;12362;50.004;8.006;2023-07-16T05:36:55;100489.13;;;18.55;100.00
24230;BME280;12362;50.004;8.006;2023-07-16T05:39:21;100489.88;;;18.46;100.00
24230;BME280;12362;50.004;8.006;2023-07-16T05:41:47;100498.13;;;18.53;100.00
24230;BME280;12362;50.004;8.006;2023-07-16T05:44:12;100497.97;;;18.65;100.00
24230;BME280;12362;50.004;8.006;2023-07-16T05:46:38;100496.84;;;18.90;100.00
24230;BME280;12362;50.004;8.006;2023-07-16T05:49:03;100496.84;;;18.90;100.00
24230;BME280;12362;50.004;8.006;2023-07-16T05:51:29;100494.41;;;18.98;100.00
24230;BME280;12362;50.004;8.006;2023-07-16T05:53:54;100499.44;;;19.01;100.00
24230;BME280;12362;50.004;8.006;2023-07-16T05:56:20;100499.78;;;19.07;100.00
24230;BME280;12362;50.004;8.006;2023-07-16T05:58:45;100492.09;;;19.15;100.00
24230;BME280;12362;50.004;8.006;2023-07-16T06:01:11;100489.22;;;19.18;100.00
24230;BME280;12362;50.004;8.006;2023-07-16T06:03:36;100503.50;;;19.16;100.00
24230;BME280;12362;50.004;8.006;2023-07-16T06:06:02;100495.88;;;19.33;100.00
24230;BME280;12362;50.004;8.006;2023-07-16T06:08:27;100492.50;;;19.31;100.00
24230;BME280;12362;50.004;8.006;2023-07-16T06:10:53;100495.75;;;19.55;100.00
24230;BME280;12362;50.004;8.006;2023-07-16T06:13:19;100484.25;;;19.56;100.00
24230;BME280;12362;50.004;8.006;2023-07-16T06:15:45;100482.69;;;19.74;100.00
24230;BME280;12362;50.004;8.006;2023-07-16T06:18:11;100482.03;;;19.81;100.00
24230;BME280;12362;50.004;8.006;2023-07-16T06:20:36;100489.75;;;19.73;100.00
24230;BME280;12362;50.004;8.006;2023-07-16T06:23:01;100485.22;;;19.85;100.00
24230;BME280;12362;50.004;8.006;2023-07-16T06:25:27;100491.47;;;19.84;100.00
24230;BME280;12362;50.004;8.006;2023-07-16T06:27:52;100491.78;;;20.11;100.00
24230;BME280;12362;50.004;8.006;2023-07-16T06:30:18;100484.88;;;20.58;100.00
24230;BME280;12362;50.004;8.006;2023-07-16T06:32:43;100482.75;;;20.92;100.00
24230;BME280;12362;50.004;8.006;2023-07-16T06:35:09;100483.56;;;20.83;100.00
24230;BME280;12362;50.004;8.006;2023-07-16T06:37:34;100480.38;;;21.64;100.00
24230;BME280;12362;50.004;8.006;2023-07-16T06:40:00;100474.22;;;21.73;100.00
24230;BME280;12362;50.004;8.006;2023-07-16T06:42:25;100478.88;;;21.98;100.00
24230;BME280;12362;50.004;8.006;2023-07-16T06:44:51;100473.41;;;21.63;100.00
24230;BME280;12362;50.004;8.006;2023-07-16T06:49:42;100477.28;;;21.50;100.00
24230;BME280;12362;50.004;8.006;2023-07-16T06:52:08;100481.78;;;21.59;100.00
24230;BME280;12362;50.004;8.006;2023-07-16T06:54:43;100484.81;;;21.64;100.00
24230;BME280;12362;50.004;8.006;2023-07-16T06:57:09;100473.75;;;21.97;100.00
24230;BME280;12362;50.004;8.006;2023-07-16T06:59:34;100477.75;;;22.64;100.00
24230;BME280;12362;50.004;8.006;2023-07-16T07:02:00;100470.75;;;22.45;100.00
24230;BME280;12362;50.004;8.006;2023-07-16T07:04:28;100475.91;;;22.74;100.00
24230;BME280;12362;50.004;8.006;2023-07-16T07:06:53;100479.81;;;22.43;100.00
24230;BME280;12362;50.004;8.006;2023-07-16T07:09:18;100471.19;;;22.85;100.00
24230;BME280;12362;50.004;8.006;2023-07-16T07:11:44;100474.84;;;22.84;100.00
24230;BME280;12362;50.004;8.006;2023-07-16T07:14:09;100479.38;;;22.74;100.00
24230;BME280;12362;50.004;8.006;2023-07-16T07:16:35;100470.91;;;22.88;100.00
24230;BME280;12362;50.004;8.006;2023-07-16T07:19:00;100475.53;;;22.86;100.00
24230;BME280;12362;50.004;8.006;2023-07-16T07:21:25;100482.47;;;22.70;100.00
24230;BME280;12362;50.004;8.006;2023-07-16T07:23:51;100475.47;;;22.95;100.00
24230;BME280;12362;50.004;8.006;2023-07-16T07:26:16;100479.84;;;22.87;100.00
24230;BME280;12362;50.004;8.006;2023-07-16T07:28:42;100472.28;;;23.09;100.00
24230;BME280;12362;50.004;8.006;2023-07-16T07:31:07;100472.06;;;23.38;100.00
24230;BME280;12362;50.004;8.006;2023-07-16T07:33:33;100470.84;;;23.75;100.00
24230;BME280;12362;50.004;8.006;2023-07-16T07:35:58;100478.47;;;23.53;100.00
24230;BME280;12362;50.004;8.006;2023-07-16T07:38:23;100472.47;;;23.68;100.00
24230;BME280;12362;50.004;8.006;2023-07-16T07:40:49;100475.38;;;24.08;100.00
24230;BME280;12362;50.004;8.006;2023-07-16T07:43:14;100477.28;;;23.73;96.11
24230;BME280;12362;50.004;8.006;2023-07-16T07:45:40;100477.59;;;23.44;98.61
24230;BME280;12362;50.004;8.006;2023-07-16T07:48:05;100480.50;;;23.59;95.53
24230;BME280;12362;50.004;8.006;2023-07-16T07:50:34;100477.41;;;23.88;98.18
24230;BME280;12362;50.004;8.006;2023-07-16T07:53:00;100474.75;;;24.14;95.82
24230;BME280;12362;50.004;8.006;2023-07-16T07:55:25;100483.19;;;23.84;88.36
24230;BME280;12362;50.004;8.006;2023-07-16T07:57:50;100478.69;;;24.10;88.67
24230;BME280;12362;50.004;8.006;2023-07-16T08:00:16;100473.78;;;23.72;90.56
24230;BME280;12362;50.004;8.006;2023-07-16T08:02:41;100482.94;;;23.52;90.57
24230;BME280;12362;50.004;8.006;2023-07-16T08:05:07;100482.19;;;23.85;88.74
24230;BME280;12362;50.004;8.006;2023-07-16T08:07:33;100471.84;;;24.41;88.70
24230;BME280;12362;50.004;8.006;2023-07-16T08:09:58;100473.59;;;25.23;90.24
24230;BME280;12362;50.004;8.006;2023-07-16T08:12:24;100463.75;;;25.95;73.93
24230;BME280;12362;50.004;8.006;2023-07-16T08:14:49;100483.31;;;24.75;75.97
24230;BME280;12362;50.004;8.006;2023-07-16T08:17:15;100483.75;;;24.62;73.26
24230;BME280;12362;50.004;8.006;2023-07-16T08:19:40;100479.50;;;24.44;80.20
24230;BME280;12362;50.004;8.006;2023-07-16T08:22:08;100462.44;;;25.11;72.63
24230;BME280;12362;50.004;8.006;2023-07-16T08:24:33;100479.81;;;24.82;76.33
24230;BME280;12362;50.004;8.006;2023-07-16T08:26:59;100473.03;;;24.87;71.09
24230;BME280;12362;50.004;8.006;2023-07-16T08:29:24;100480.78;;;24.65;71.84
24230;BME280;12362;50.004;8.006;2023-07-16T08:31:50;100478.94;;;25.23;68.54
24230;BME280;12362;50.004;8.006;2023-07-16T08:34:16;100474.44;;;25.47;69.02
24230;BME280;12362;50.004;8.006;2023-07-16T08:36:41;100479.53;;;25.09;70.29
24230;BME280;12362;50.004;8.006;2023-07-16T08:39:09;100480.53;;;25.00;70.39
24230;BME280;12362;50.004;8.006;2023-07-16T08:41:36;100487.97;;;24.88;66.47
24230;BME280;12362;50.004;8.006;2023-07-16T08:44:01;100481.31;;;24.77;74.67
24230;BME280;12362;50.004;8.006;2023-07-16T08:46:27;100472.28;;;25.43;67.13
24230;BME280;12362;50.004;8.006;2023-07-16T08:48:53;100479.22;;;25.04;67.40
24230;BME280;12362;50.004;8.006;2023-07-16T08:51:20;100496.81;;;24.97;68.14
24230;BME280;12362;50.004;8.006;2023-07-16T08:53:47;100472.94;;;25.37;64.31
24230;BME280;12362;50.004;8.006;2023-07-16T08:56:12;100493.03;;;25.15;63.01
24230;BME280;12362;50.004;8.006;2023-07-16T08:58:39;100487.91;;;25.22;65.00
24230;BME280;12362;50.004;8.006;2023-07-16T09:01:06;100489.72;;;25.13;62.21
24230;BME280;12362;50.004;8.006;2023-07-16T09:03:31;100497.28;;;25.00;62.50
24230;BME280;12362;50.004;8.006;2023-07-16T09:05:56;100483.75;;;25.19;61.68
24230;BME280;12362;50.004;8.006;2023-07-16T09:08:22;100484.75;;;25.66;57.83
24230;BME280;12362;50.004;8.006;2023-07-16T09:10:54;100486.56;;;25.18;61.61
24230;BME280;12362;50.004;8.006;2023-07-16T09:13:20;100483.38;;;25.70;57.66
24230;BME280;12362;50.004;8.006;2023-07-16T09:15:51;100470.06;;;26.40;57.51
24230;BME280;12362;50.004;8.006;2023-07-16T09:18:24;100470.00;;;26.64;52.21
24230;BME280;12362;50.004;8.006;2023-07-16T09:20:58;100477.78;;;26.27;55.66
24230;BME280;12362;50.004;8.006;2023-07-16T09:23:25;100472.75;;;27.46;51.35
24230;BME280;12362;50.004;8.006;2023-07-16T09:25:51;100482.72;;;25.84;53.60
24230;BME280;12362;50.004;8.006;2023-07-16T09:28:18;100489.88;;;25.91;53.51
24230;BME280;12362;50.004;8.006;2023-07-16T09:30:46;100494.38;;;25.35;52.45
24230;BME280;12362;50.004;8.006;2023-07-16T09:33:14;100486.72;;;25.72;54.78
24230;BME280;12362;50.004;8.006;2023-07-16T09:35:41;100495.06;;;25.69;50.91
24230;BME280;12362;50.004;8.006;2023-07-16T09:38:10;100500.72;;;25.34;53.66
24230;BME280;12362;50.004;8.006;2023-07-16T09:40:38;100490.50;;;26.01;54.21
24230;BME280;12362;50.004;8.006;2023-07-16T09:43:04;100495.16;;;27.22;52.36
24230;BME280;12362;50.004;8.006;2023-07-16T09:45:31;100496.06;;;26.38;53.11
24230;BME280;12362;50.004;8.006;2023-07-16T09:47:56;100490.50;;;26.86;51.88
24230;BME280;12362;50.004;8.006;2023-07-16T09:50:28;100495.88;;;26.48;49.56
24230;BME280;12362;50.004;8.006;2023-07-16T09:52:56;100491.50;;;26.63;47.52
24230;BME280;12362;50.004;8.006;2023-07-16T09:55:23;100502.50;;;26.90;49.52
24230;BME280;12362;50.004;8.006;2023-07-16T09:57:50;100484.84;;;26.89;53.98
24230;BME280;12362;50.004;8.006;2023-07-16T10:00:17;100497.69;;;26.47;48.90
24230;BME280;12362;50.004;8.006;2023-07-16T10:02:44;100493.38;;;25.76;51.63
24230;BME280;12362;50.004;8.006;2023-07-16T10:05:13;100488.84;;;26.85;49.15
24230;BME280;12362;50.004;8.006;2023-07-16T10:07:40;100492.34;;;26.55;51.15
24230;BME280;12362;50.004;8.006;2023-07-16T10:10:10;100481.66;;;28.26;50.54
24230;BME280;12362;50.004;8.006;2023-07-16T10:12:36;100479.97;;;27.82;47.41
24230;BME280;12362;50.004;8.006;2023-07-16T10:15:03;100486.69;;;27.56;45.67
24230;BME280;12362;50.004;8.006;2023-07-16T10:17:31;100494.44;;;26.68;47.12
24230;BME280;12362;50.004;8.006;2023-07-16T10:20:12;100480.28;;;27.28;47.22
24230;BME280;12362;50.004;8.006;2023-07-16T10:22:45;100487.38;;;27.35;46.19
24230;BME280;12362;50.004;8.006;2023-07-16T10:27:43;100485.66;;;26.89;46.21
24230;BME280;12362;50.004;8.006;2023-07-16T10:30:09;100491.34;;;26.56;45.39
24230;BME280;12362;50.004;8.006;2023-07-16T10:32:35;100487.31;;;26.90;45.34
24230;BME280;12362;50.004;8.006;2023-07-16T10:35:01;100485.38;;;26.84;44.72
24230;BME280;12362;50.004;8.006;2023-07-16T10:37:28;100483.56;;;27.52;46.74
24230;BME280;12362;50.004;8.006;2023-07-16T10:39:56;100483.09;;;27.49;44.29
24230;BME280;12362;50.004;8.006;2023-07-16T10:42:26;100497.50;;;26.65;45.85
24230;BME280;12362;50.004;8.006;2023-07-16T10:45:00;100488.75;;;27.31;44.71
24230;BME280;12362;50.004;8.006;2023-07-16T10:47:30;100480.47;;;26.66;46.81
24230;BME280;12362;50.004;8.006;2023-07-16T10:49:56;100496.72;;;27.09;46.51
24230;BME280;12362;50.004;8.006;2023-07-16T10:52:22;100486.91;;;26.49;45.23
24230;BME280;12362;50.004;8.006;2023-07-16T10:54:49;100479.50;;;26.89;45.15
24230;BME280;12362;50.004;8.006;2023-07-16T10:57:15;100476.63;;;27.43;45.37
24230;BME280;12362;50.004;8.006;2023-07-16T10:59:42;100476.75;;;27.86;44.68
24230;BME280;12362;50.004;8.006;2023-07-16T11:02:13;100479.00;;;28.26;41.68
24230;BME280;12362;50.004;8.006;2023-07-16T11:04:40;100480.81;;;27.23;44.67
24230;BME280;12362;50.004;8.006;2023-07-16T11:07:07;100492.13;;;27.62;45.21
24230;BME280;12362;50.004;8.006;2023-07-16T11:09:40;100483.09;;;27.49;44.61
24230;BME280;12362;50.004;8.006;2023-07-16T11:12:08;100490.75;;;27.52;43.74
24230;BME280;12362;50.004;8.006;2023-07-16T11:14:34;100481.53;;;28.05;42.30
24230;BME280;12362;50.004;8.006;2023-07-16T11:17:07;100477.41;;;27.52;43.28
24230;BME280;12362;50.004;8.006;2023-07-16T11:19:34;100481.78;;;27.67;42.84
24230;BME280;12362;50.004;8.006;2023-07-16T11:22:02;100474.38;;;28.35;41.10
24230;BME280;12362;50.004;8.006;2023-07-16T11:24:35;100474.50;;;27.39;41.17
24230;BME280;12362;50.004;8.006;2023-07-16T11:27:01;100484.72;;;27.35;41.36
24230;BME280;12362;50.004;8.006;2023-07-16T11:29:34;100482.56;;;27.08;41.95
24230;BME280;12362;50.004;8.006;2023-07-16T11:31:59;100475.09;;;28.00;44.22
24230;BME280;12362;50.004;8.006;2023-07-16T11:34:25;100471.50;;;27.56;42.44
24230;BME280;12362;50.004;8.006;2023-07-16T11:36:50;100474.94;;;28.30;41.87
24230;BME280;12362;50.004;8.006;2023-07-16T11:39:16;100467.69;;;27.73;41.54
24230;BME280;12362;50.004;8.006;2023-07-16T11:41:41;100469.75;;;27.49;41.00
24230;BME280;12362;50.004;8.006;2023-07-16T11:44:08;100474.53;;;27.53;41.76
24230;BME280;12362;50.004;8.006;2023-07-16T11:46:34;100464.22;;;27.72;42.30
24230;BME280;12362;50.004;8.006;2023-07-16T11:49:00;100474.66;;;27.60;41.71
24230;BME280;12362;50.004;8.006;2023-07-16T11:51:26;100482.97;;;27.42;45.60
24230;BME280;12362;50.004;8.006;2023-07-16T11:53:53;100449.19;;;29.56;41.44
24230;BME280;12362;50.004;8.006;2023-07-16T11:56:19;100478.59;;;28.15;41.42
24230;BME280;12362;50.004;8.006;2023-07-16T11:58:44;100466.81;;;28.09;41.83
24230;BME280;12362;50.004;8.006;2023-07-16T12:01:10;100458.94;;;29.01;39.36
24230;BME280;12362;50.004;8.006;2023-07-16T12:03:35;100466.13;;;28.65;40.38
24230;BME280;12362;50.004;8.006;2023-07-16T12:06:01;100465.31;;;27.78;43.12
24230;BME280;12362;50.004;8.006;2023-07-16T12:08:27;100473.19;;;28.52;42.36
24230;BME280;12362;50.004;8.006;2023-07-16T12:10:52;100472.25;;;27.28;41.58
24230;BME280;12362;50.004;8.006;2023-07-16T12:13:18;100461.31;;;27.37;42.40
24230;BME280;12362;50.004;8.006;2023-07-16T12:15:44;100474.91;;;28.59;41.01
24230;BME280;12362;50.004;8.006;2023-07-16T12:18:09;100458.75;;;28.67;39.07
24230;BME280;12362;50.004;8.006;2023-07-16T12:20:35;100460.19;;;27.76;41.09
24230;BME280;12362;50.004;8.006;2023-07-16T12:23:05;100464.84;;;27.38;43.68
24230;BME280;12362;50.004;8.006;2023-07-16T12:25:30;100454.66;;;27.92;40.97
24230;BME280;12362;50.004;8.006;2023-07-16T12:27:56;100444.78;;;28.86;39.43
24230;BME280;12362;50.004;8.006;2023-07-16T12:30:23;100446.59;;;29.42;40.30
24230;BME280;12362;50.004;8.006;2023-07-16T12:32:49;100442.81;;;30.18;37.33
24230;BME280;12362;50.004;8.006;2023-07-16T12:35:15;100455.13;;;28.74;37.99
24230;BME280;12362;50.004;8.006;2023-07-16T12:37:41;100456.22;;;28.01;40.41
24230;BME280;12362;50.004;8.006;2023-07-16T12:40:06;100460.78;;;27.42;41.22
24230;BME280;12362;50.004;8.006;2023-07-16T12:42:32;100446.81;;;28.05;40.98
24230;BME280;12362;50.004;8.006;2023-07-16T12:44:58;100457.66;;;26.93;43.06
24230;BME280;12362;50.004;8.006;2023-07-16T12:47:24;100458.44;;;27.61;41.92
24230;BME280;12362;50.004;8.006;2023-07-16T12:49:49;100453.13;;;28.76;40.99